Time;durP1;ratioP1;P1;durP2;ratioP2;P2;SDS_P1;SDS_P2;PMS_P1;PMS_P2;Temp;Humidity;BMP_temperature;BMP_pressure;BME280_temperature;BME280_humidity;BME280_pressure;Samples;Min_cycle;Max_cycle;Signal;HPM_P1;HPM_P2
2021/08/23 00:00:46;;;;;;;1.45;0.65;;;19.60;83.70;;;;;;10128330;28;20036;-59
2021/08/23 00:05:37;;;;;;;2.35;1.13;;;19.60;83.70;;;;;;10127298;28;20732;-58
2021/08/23 00:10:28;;;;;;;1.98;1.10;;;19.50;83.80;;;;;;10123789;28;20045;-59
2021/08/23 00:15:18;;;;;;;1.75;0.80;;;19.60;83.80;;;;;;10126591;28;20062;-59
2021/08/23 00:20:16;;;;;;;1.33;0.98;;;19.60;83.70;;;;;;10127184;28;20029;-58
2021/08/23 00:25:07;;;;;;;2.55;0.90;;;19.60;83.50;;;;;;10137147;28;20541;-58
2021/08/23 00:29:57;;;;;;;3.50;1.27;;;19.40;83.80;;;;;;10134560;28;20052;-58
2021/08/23 00:34:48;;;;;;;3.20;1.05;;;19.40;83.90;;;;;;10129588;28;20037;-58
2021/08/23 00:39:39;;;;;;;1.58;0.93;;;19.40;84.10;;;;;;10134641;28;20032;-58
2021/08/23 00:44:35;;;;;;;2.08;0.85;;;19.30;84.10;;;;;;10135794;28;20081;-59
2021/08/23 00:49:28;;;;;;;1.85;1.00;;;19.30;84.10;;;;;;10134710;28;20028;-58
2021/08/23 00:54:19;;;;;;;1.85;1.35;;;19.30;84.10;;;;;;10137938;28;20115;-57
2021/08/23 00:59:11;;;;;;;1.40;1.00;;;19.20;84.20;;;;;;10140926;28;20025;-59
2021/08/23 01:04:05;;;;;;;2.47;1.20;;;19.10;84.40;;;;;;10135247;28;20587;-59
2021/08/23 01:09:02;;;;;;;2.33;1.02;;;19.10;84.40;;;;;;10137120;28;20021;-59
2021/08/23 01:13:53;;;;;;;2.10;1.27;;;19.00;84.70;;;;;;10134226;28;20578;-59
2021/08/23 01:18:44;;;;;;;1.48;1.00;;;18.90;84.80;;;;;;10124434;28;20025;-58
2021/08/23 01:23:38;;;;;;;2.00;1.13;;;18.80;85.00;;;;;;10128593;28;20029;-58
2021/08/23 01:28:45;;;;;;;2.63;1.10;;;18.80;85.20;;;;;;10133722;28;20025;-59
2021/08/23 01:33:36;;;;;;;2.72;1.08;;;18.80;85.20;;;;;;10132204;28;20049;-58
2021/08/23 01:38:28;;;;;;;1.35;1.02;;;18.80;85.40;;;;;;10136093;28;20032;-59
2021/08/23 01:43:18;;;;;;;1.45;1.20;;;18.80;85.40;;;;;;10129803;28;20035;-58
2021/08/23 01:48:09;;;;;;;1.20;0.93;;;18.70;85.50;;;;;;10129721;28;20024;-59
2021/08/23 01:53:00;;;;;;;1.50;1.23;;;18.80;85.50;;;;;;10131511;28;20033;-60
2021/08/23 01:57:50;;;;;;;2.35;1.48;;;18.60;85.80;;;;;;10129773;28;20036;-58
2021/08/23 02:02:41;;;;;;;2.58;1.75;;;18.60;85.90;;;;;;10134696;28;20032;-57
2021/08/23 02:07:31;;;;;;;0.90;0.75;;;18.60;85.80;;;;;;10133673;28;20033;-58
2021/08/23 02:12:22;;;;;;;4.03;1.30;;;18.60;86.00;;;;;;10136351;28;20476;-57
2021/08/23 02:17:13;;;;;;;2.78;1.70;;;18.70;85.80;;;;;;10133851;28;20029;-57
2021/08/23 02:22:04;;;;;;;2.78;1.45;;;18.60;85.90;;;;;;10133099;28;20055;-58
2021/08/23 02:26:55;;;;;;;2.28;1.40;;;18.60;85.90;;;;;;10122145;28;20406;-58
2021/08/23 02:31:46;;;;;;;2.33;1.30;;;18.50;86.20;;;;;;10129286;28;20051;-58
2021/08/23 02:36:37;;;;;;;2.45;1.30;;;18.70;85.90;;;;;;10137267;28;20043;-59
2021/08/23 02:41:27;;;;;;;2.13;1.35;;;18.70;85.80;;;;;;10129446;28;20099;-60
2021/08/23 02:46:18;;;;;;;1.52;1.10;;;18.50;86.10;;;;;;10127482;28;20111;-57
2021/08/23 02:51:09;;;;;;;2.03;1.20;;;18.50;86.40;;;;;;10128603;28;20481;-60
2021/08/23 02:55:59;;;;;;;1.60;1.08;;;18.50;86.50;;;;;;10128604;28;20052;-59
2021/08/23 03:00:50;;;;;;;2.60;1.38;;;18.50;86.30;;;;;;10127157;28;20031;-58
2021/08/23 03:05:40;;;;;;;1.60;1.27;;;18.50;86.20;;;;;;10128342;28;20311;-58
2021/08/23 03:10:31;;;;;;;2.78;1.75;;;18.50;86.50;;;;;;10126805;28;20059;-58
2021/08/23 03:15:22;;;;;;;1.45;0.90;;;18.50;86.60;;;;;;10126554;28;20059;-58
2021/08/23 03:20:13;;;;;;;2.63;1.08;;;18.40;86.70;;;;;;10130292;28;20043;-58
2021/08/23 03:25:04;;;;;;;3.42;0.93;;;18.40;86.80;;;;;;10128678;28;20119;-57
2021/08/23 03:29:54;;;;;;;1.45;0.98;;;18.40;86.60;;;;;;10126418;28;20051;-58
2021/08/23 03:34:45;;;;;;;3.55;0.90;;;18.40;86.50;;;;;;10129773;28;20119;-58
2021/08/23 03:39:36;;;;;;;2.78;1.08;;;18.50;86.40;;;;;;10130403;28;20078;-58
2021/08/23 03:44:27;;;;;;;1.65;1.17;;;18.60;86.10;;;;;;10126969;28;20033;-58
2021/08/23 03:49:17;;;;;;;1.25;0.90;;;18.70;86.00;;;;;;10129550;28;20410;-58
2021/08/23 03:54:08;;;;;;;2.47;1.20;;;18.60;86.30;;;;;;10133263;28;20362;-60
2021/08/23 03:58:59;;;;;;;1.60;0.95;;;18.60;86.20;;;;;;10135179;28;20031;-58
2021/08/23 04:03:49;;;;;;;2.45;1.42;;;18.60;86.50;;;;;;10132683;28;20596;-58
2021/08/23 04:08:40;;;;;;;2.03;1.35;;;18.60;86.50;;;;;;10130600;28;20436;-58
2021/08/23 04:13:31;;;;;;;2.60;1.20;;;18.60;86.40;;;;;;10129338;28;20033;-60
2021/08/23 04:18:22;;;;;;;1.73;1.30;;;18.70;86.30;;;;;;10133221;28;20040;-58
2021/08/23 04:23:13;;;;;;;2.75;1.10;;;18.60;86.30;;;;;;10133925;28;20025;-58
2021/08/23 04:28:03;;;;;;;4.03;1.30;;;18.60;86.30;;;;;;10133157;28;20541;-59
2021/08/23 04:32:55;;;;;;;5.72;1.75;;;18.60;86.30;;;;;;10139213;28;20417;-58
2021/08/23 04:37:46;;;;;;;4.13;1.10;;;18.60;87.00;;;;;;10135730;28;20105;-58
2021/08/23 04:42:37;;;;;;;2.58;1.40;;;18.60;86.40;;;;;;10134971;28;20578;-57
2021/08/23 04:47:27;;;;;;;1.67;1.27;;;18.40;87.50;;;;;;10146394;28;20090;-58
2021/08/23 04:52:18;;;;;;;2.15;1.25;;;18.40;86.90;;;;;;10133869;28;20268;-58
2021/08/23 04:57:09;;;;;;;2.45;1.35;;;18.30;86.80;;;;;;10133098;28;20051;-58
2021/08/23 05:02:00;;;;;;;2.25;1.25;;;18.20;87.20;;;;;;10135515;28;20033;-58
2021/08/23 05:06:50;;;;;;;2.25;1.30;;;18.20;87.30;;;;;;10129239;28;20457;-61
2021/08/23 05:11:41;;;;;;;5.00;1.58;;;18.20;87.10;;;;;;10129609;28;20032;-59
2021/08/23 05:16:32;;;;;;;3.75;1.52;;;18.30;87.10;;;;;;10135942;28;20091;-59
2021/08/23 05:21:22;;;;;;;5.18;1.88;;;18.50;86.90;;;;;;10131369;28;20036;-59
2021/08/23 05:26:13;;;;;;;2.03;1.30;;;18.60;86.70;;;;;;10130689;28;20039;-60
2021/08/23 05:31:04;;;;;;;2.67;1.58;;;18.60;86.90;;;;;;10141958;28;20044;-60
2021/08/23 05:35:54;;;;;;;3.13;1.55;;;18.70;87.00;;;;;;10136399;28;20027;-59
2021/08/23 05:40:45;;;;;;;3.88;2.40;;;18.70;87.00;;;;;;10135262;28;20387;-58
2021/08/23 05:45:36;;;;;;;3.67;2.35;;;18.80;86.90;;;;;;10132719;28;20407;-58
2021/08/23 05:50:26;;;;;;;2.15;1.35;;;18.90;86.90;;;;;;10128564;28;20745;-58
2021/08/23 05:55:17;;;;;;;1.65;1.20;;;19.00;87.00;;;;;;10134807;28;20032;-59
2021/08/23 06:00:10;;;;;;;3.63;1.42;;;19.20;86.90;;;;;;10131131;28;20020;-58
2021/08/23 06:05:01;;;;;;;1.25;1.15;;;19.30;86.70;;;;;;10130502;28;20036;-59
2021/08/23 06:09:51;;;;;;;4.38;1.25;;;19.30;86.90;;;;;;10124957;28;20029;-58
2021/08/23 06:14:42;;;;;;;2.75;1.27;;;19.20;87.90;;;;;;10124831;28;20028;-59
2021/08/23 06:19:33;;;;;;;1.88;1.40;;;19.20;87.20;;;;;;10126444;28;20060;-59
2021/08/23 06:24:23;;;;;;;1.98;1.08;;;19.10;87.40;;;;;;10131222;28;20040;-58
2021/08/23 06:29:14;;;;;;;2.35;1.70;;;19.10;87.30;;;;;;10130563;28;20017;-59
2021/08/23 06:34:05;;;;;;;2.35;1.48;;;19.00;87.20;;;;;;10131222;28;20044;-58
2021/08/23 06:38:56;;;;;;;3.38;1.48;;;19.00;87.40;;;;;;10129254;28;20195;-56
2021/08/23 06:43:47;;;;;;;2.50;1.60;;;18.90;87.60;;;;;;10127248;28;20028;-57
2021/08/23 06:48:38;;;;;;;3.92;1.25;;;19.10;87.10;;;;;;10126512;28;20591;-55
2021/08/23 06:53:29;;;;;;;2.08;1.25;;;19.20;87.10;;;;;;10123924;28;20033;-57
2021/08/23 06:58:20;;;;;;;3.45;1.67;;;19.30;86.90;;;;;;10127808;28;20410;-56
2021/08/23 07:03:11;;;;;;;3.55;1.65;;;19.40;86.80;;;;;;10133241;28;20039;-56
2021/08/23 07:08:01;;;;;;;2.58;1.58;;;19.60;86.50;;;;;;10129940;28;20028;-55
2021/08/23 07:12:52;;;;;;;2.42;1.70;;;19.60;87.00;;;;;;10128851;28;20060;-57
2021/08/23 07:17:42;;;;;;;2.20;1.33;;;19.50;86.40;;;;;;10129815;28;20021;-59
2021/08/23 07:22:33;;;;;;;4.90;1.67;;;19.70;86.30;;;;;;10121556;28;20028;-59
2021/08/23 07:27:24;;;;;;;2.58;1.73;;;19.80;86.10;;;;;;10123786;28;20033;-58
2021/08/23 07:32:15;;;;;;;4.03;1.55;;;19.80;86.00;;;;;;10128674;28;20540;-60
2021/08/23 07:37:05;;;;;;;3.90;1.65;;;19.70;86.00;;;;;;10124203;28;20505;-59
2021/08/23 07:41:56;;;;;;;2.97;1.50;;;19.80;86.10;;;;;;10125765;28;20036;-59
2021/08/23 07:46:47;;;;;;;5.47;2.50;;;19.90;85.70;;;;;;10130266;28;20032;-59
2021/08/23 07:51:37;;;;;;;3.38;1.52;;;20.20;85.40;;;;;;10127347;28;20040;-59
2021/08/23 07:56:29;;;;;;;2.05;1.50;;;20.30;85.20;;;;;;10123585;28;20393;-59
2021/08/23 08:01:22;;;;;;;2.67;1.50;;;20.60;84.50;;;;;;10127093;28;20123;-59
2021/08/23 08:06:13;;;;;;;1.95;1.52;;;20.90;84.30;;;;;;10121771;28;20383;-59
2021/08/23 08:11:03;;;;;;;1.63;1.42;;;20.90;84.10;;;;;;10125766;28;20474;-59
2021/08/23 08:15:54;;;;;;;2.45;1.88;;;20.70;84.20;;;;;;10125018;28;20028;-58
2021/08/23 08:20:45;;;;;;;5.93;2.42;;;20.40;84.80;;;;;;10125837;28;20090;-58
2021/08/23 08:25:36;;;;;;;3.92;1.42;;;20.40;84.80;;;;;;10129327;28;20017;-56
2021/08/23 08:30:27;;;;;;;3.42;1.70;;;20.20;84.60;;;;;;10130484;28;20048;-57
2021/08/23 08:35:17;;;;;;;2.83;1.60;;;20.10;84.80;;;;;;10127335;28;20043;-56
2021/08/23 08:40:10;;;;;;;1.80;1.30;;;20.00;84.70;;;;;;10134393;28;20036;-57
2021/08/23 08:45:01;;;;;;;1.92;1.63;;;19.80;85.00;;;;;;10134318;28;20029;-55
2021/08/23 08:49:52;;;;;;;5.88;1.40;;;19.80;85.10;;;;;;10136010;28;20028;-58
2021/08/23 08:54:44;;;;;;;3.10;1.50;;;19.80;85.00;;;;;;10130075;28;20021;-56
2021/08/23 08:59:35;;;;;;;1.92;1.45;;;19.90;84.80;;;;;;10132611;28;20024;-56
2021/08/23 09:04:31;;;;;;;2.83;1.60;;;19.50;85.10;;;;;;10128502;28;20039;-57
2021/08/23 09:09:22;;;;;;;3.85;1.63;;;19.30;85.80;;;;;;10132428;28;20051;-56
2021/08/23 09:14:12;;;;;;;1.88;1.25;;;19.20;86.80;;;;;;10133143;28;20044;-56
2021/08/23 09:19:03;;;;;;;1.73;1.15;;;19.10;87.30;;;;;;10122548;28;20385;-56
2021/08/23 09:23:57;;;;;;;3.67;1.67;;;19.20;87.50;;;;;;10130696;28;20614;-56
2021/08/23 09:28:59;;;;;;;3.03;1.30;;;19.30;87.20;;;;;;10136663;28;20029;-55
2021/08/23 09:33:50;;;;;;;2.30;1.05;;;19.50;87.50;;;;;;10130224;28;20044;-55
2021/08/23 09:38:43;;;;;;;2.40;1.35;;;19.60;87.60;;;;;;10135644;28;20219;-55
2021/08/23 09:43:35;;;;;;;1.75;1.10;;;20.00;87.30;;;;;;10128672;28;20116;-54
2021/08/23 09:48:25;;;;;;;1.35;1.00;;;20.10;87.10;;;;;;10129284;28;20020;-60
2021/08/23 09:53:19;;;;;;;2.53;1.20;;;20.20;87.30;;;;;;10135057;28;20033;-58
2021/08/23 09:58:11;;;;;;;1.60;1.13;;;20.20;87.30;;;;;;10130046;28;20086;-56
2021/08/23 10:03:05;;;;;;;3.03;1.13;;;20.10;87.60;;;;;;10131055;28;20089;-57
2021/08/23 10:07:56;;;;;;;3.72;1.20;;;20.10;87.70;;;;;;10142839;28;20420;-57
2021/08/23 10:12:47;;;;;;;1.33;1.10;;;20.10;87.50;;;;;;10130941;28;20036;-56
2021/08/23 10:17:38;;;;;;;2.17;1.67;;;20.10;87.50;;;;;;10129940;28;20098;-60
2021/08/23 10:22:31;;;;;;;2.03;1.13;;;20.10;87.60;;;;;;10128505;28;20056;-60
2021/08/23 10:27:24;;;;;;;2.70;1.45;;;20.00;87.90;;;;;;10131072;28;20029;-59
2021/08/23 10:32:15;;;;;;;2.42;1.30;;;19.90;88.00;;;;;;10129043;28;20107;-58
2021/08/23 10:37:21;;;;;;;3.10;1.50;;;19.70;88.30;;;;;;10129098;28;20498;-58
2021/08/23 10:42:13;;;;;;;;;;;19.50;88.90;;;;;;10127096;28;20025;-57
2021/08/23 10:47:05;;;;;;;2.92;1.17;;;19.40;89.40;;;;;;10136724;28;19920;-59
2021/08/23 10:51:58;;;;;;;3.00;1.13;;;19.40;89.50;;;;;;10133370;28;20097;-57
2021/08/23 10:57:01;;;;;;;2.08;1.38;;;19.60;89.40;;;;;;10132264;28;20029;-56
2021/08/23 11:01:53;;;;;;;1.45;1.20;;;19.70;89.60;;;;;;10130809;28;20376;-57
2021/08/23 11:06:49;;;;;;;2.08;1.33;;;19.80;89.50;;;;;;10128334;28;20032;-57
2021/08/23 11:11:40;;;;;;;5.30;1.48;;;19.80;89.70;;;;;;10135164;28;20055;-58
2021/08/23 11:16:32;;;;;;;1.80;1.30;;;19.70;90.00;;;;;;10131237;28;20350;-58
2021/08/23 11:21:26;;;;;;;2.75;1.40;;;19.70;90.00;;;;;;10130593;28;20085;-53
2021/08/23 11:26:22;;;;;;;2.22;1.33;;;19.70;90.10;;;;;;10126827;28;20056;-54
2021/08/23 11:31:12;;;;;;;2.80;1.17;;;19.80;90.10;;;;;;10123894;28;20122;-56
2021/08/23 11:36:07;;;;;;;2.45;1.48;;;19.90;90.10;;;;;;10125289;28;20086;-56
2021/08/23 11:40:58;;;;;;;3.03;1.88;;;20.30;89.70;;;;;;10129192;28;20098;-57
2021/08/23 11:45:50;;;;;;;2.42;1.92;;;20.70;89.30;;;;;;10128073;28;20103;-57
2021/08/23 11:50:41;;;;;;;2.95;1.42;;;21.10;88.70;;;;;;10127713;28;20076;-57
2021/08/23 11:55:38;;;;;;;2.90;1.60;;;21.00;89.00;;;;;;10132294;28;20464;-57
2021/08/23 12:00:29;;;;;;;2.15;1.50;;;21.20;88.90;;;;;;10128553;28;20040;-57
2021/08/23 12:05:20;;;;;;;1.92;1.52;;;21.20;88.70;;;;;;10126070;28;20448;-59
2021/08/23 12:10:22;;;;;;;2.75;1.85;;;20.60;89.60;;;;;;10129815;28;20077;-58
2021/08/23 12:15:23;;;;;;;4.90;1.65;;;20.20;89.90;;;;;;10134218;28;20039;-57
2021/08/23 12:20:18;;;;;;;3.67;2.22;;;19.90;90.30;;;;;;10134236;28;20063;-56
2021/08/23 12:25:09;;;;;;;2.92;1.73;;;19.80;90.20;;;;;;10133416;28;20035;-54
2021/08/23 12:30:00;;;;;;;2.80;1.67;;;19.90;90.20;;;;;;10132475;28;20045;-56
2021/08/23 12:34:52;;;;;;;3.38;2.22;;;20.20;90.00;;;;;;10130423;28;20032;-56
2021/08/23 12:39:46;;;;;;;3.90;2.60;;;20.70;89.30;;;;;;10133417;28;20497;-56
2021/08/23 12:44:38;;;;;;;2.72;1.70;;;20.80;89.30;;;;;;10131459;28;20102;-58
2021/08/23 12:49:30;;;;;;;4.40;2.05;;;20.60;89.40;;;;;;10135444;28;20437;-57
2021/08/23 12:54:22;;;;;;;3.40;2.00;;;20.50;89.90;;;;;;10132255;28;20036;-55
2021/08/23 12:59:12;;;;;;;2.58;2.08;;;20.50;89.90;;;;;;10129467;28;20025;-58
2021/08/23 13:04:04;;;;;;;3.20;1.83;;;20.50;89.90;;;;;;10133430;28;20056;-57
2021/08/23 13:08:56;;;;;;;3.35;1.92;;;20.50;90.00;;;;;;10134441;28;20052;-57
2021/08/23 13:13:46;;;;;;;3.00;2.10;;;20.50;90.00;;;;;;10133597;28;20038;-57
2021/08/23 13:18:38;;;;;;;2.50;1.80;;;20.70;89.60;;;;;;10134028;28;20036;-58
2021/08/23 13:23:28;;;;;;;3.55;2.15;;;20.90;89.50;;;;;;10130664;28;20252;-57
2021/08/23 13:28:19;;;;;;;2.88;2.13;;;21.70;89.00;;;;;;10129440;28;20028;-57
2021/08/23 13:33:10;;;;;;;2.97;1.90;;;21.90;88.90;;;;;;10129169;28;20122;-57
2021/08/23 13:38:03;;;;;;;3.65;1.92;;;21.90;89.00;;;;;;10130413;28;20052;-57
2021/08/23 13:42:53;;;;;;;2.65;2.20;;;22.10;88.90;;;;;;10132049;28;20101;-57
2021/08/23 13:47:44;;;;;;;3.55;2.03;;;22.40;88.90;;;;;;10131200;28;20409;-56
2021/08/23 13:52:35;;;;;;;3.28;2.10;;;22.70;87.70;;;;;;10126718;28;20460;-57
2021/08/23 13:57:26;;;;;;;2.63;1.80;;;22.50;88.40;;;;;;10128379;28;20169;-58
2021/08/23 14:02:16;;;;;;;2.90;2.17;;;22.30;88.50;;;;;;10130298;28;20374;-58
2021/08/23 14:07:07;;;;;;;2.53;2.10;;;21.90;89.20;;;;;;10130821;28;20115;-56
2021/08/23 14:11:58;;;;;;;3.28;2.53;;;21.40;89.50;;;;;;10136168;28;20043;-57
2021/08/23 14:16:48;;;;;;;4.95;2.17;;;21.40;89.40;;;;;;10132224;28;20085;-54
2021/08/23 14:21:39;;;;;;;3.08;2.60;;;21.50;88.90;;;;;;10133783;28;20030;-58
2021/08/23 14:26:30;;;;;;;4.15;2.70;;;21.90;88.20;;;;;;10127883;28;20028;-58
2021/08/23 14:31:21;;;;;;;2.60;2.40;;;25.80;83.30;;;;;;10127114;28;20075;-57
2021/08/23 14:36:12;;;;;;;4.82;2.42;;;28.80;77.80;;;;;;10133226;28;20413;-58
2021/08/23 14:41:04;;;;;;;3.78;2.80;;;27.70;78.30;;;;;;10127074;28;20025;-57
2021/08/23 14:45:54;;;;;;;4.68;2.80;;;26.70;80.10;;;;;;10129177;28;20025;-56
2021/08/23 14:50:46;;;;;;;3.55;2.75;;;25.50;81.30;;;;;;10131300;28;20544;-54
2021/08/23 14:55:37;;;;;;;3.22;1.90;;;24.70;82.50;;;;;;10130492;28;20097;-56
2021/08/23 15:00:27;;;;;;;2.75;2.17;;;24.20;82.50;;;;;;10130810;28;20628;-59
2021/08/23 15:05:19;;;;;;;4.90;2.50;;;23.80;82.00;;;;;;10126056;28;20090;-57
2021/08/23 15:10:10;;;;;;;3.83;2.28;;;23.20;82.20;;;;;;10132359;28;20513;-59
2021/08/23 15:15:01;;;;;;;3.55;2.45;;;22.90;82.80;;;;;;10132050;28;20111;-57
2021/08/23 15:19:51;;;;;;;5.57;2.35;;;22.80;82.20;;;;;;10127988;28;20103;-56
2021/08/23 15:24:42;;;;;;;2.78;2.10;;;22.80;81.90;;;;;;10127554;28;20442;-57
2021/08/23 15:29:33;;;;;;;2.75;2.17;;;22.70;81.60;;;;;;10123864;28;20025;-57
2021/08/23 15:34:23;;;;;;;4.28;2.40;;;22.70;81.40;;;;;;10128594;28;20457;-57
2021/08/23 15:39:14;;;;;;;3.67;3.05;;;24.40;79.20;;;;;;10123754;28;20364;-57
2021/08/23 15:44:05;;;;;;;2.05;1.85;;;27.10;74.50;;;;;;10127051;28;20032;-58
2021/08/23 15:48:55;;;;;;;2.38;1.88;;;29.50;71.10;;;;;;10137400;28;20036;-57
2021/08/23 15:53:46;;;;;;;4.00;2.00;;;29.10;70.90;;;;;;10139259;28;20036;-58
2021/08/23 15:58:37;;;;;;;3.10;2.22;;;31.10;67.00;;;;;;10136755;28;20020;-58
2021/08/23 16:03:28;;;;;;;2.65;2.00;;;28.60;70.10;;;;;;10131902;28;20147;-59
2021/08/23 16:08:19;;;;;;;2.47;1.38;;;28.00;71.70;;;;;;10136082;28;20153;-57
2021/08/23 16:13:10;;;;;;;1.80;1.60;;;26.10;73.60;;;;;;10138024;28;20036;-59
2021/08/23 16:18:01;;;;;;;3.40;1.75;;;25.40;74.30;;;;;;10137467;28;20119;-58
2021/08/23 16:22:51;;;;;;;2.45;1.80;;;25.50;73.60;;;;;;10137871;28;20420;-57
2021/08/23 16:27:42;;;;;;;2.80;2.25;;;24.70;73.80;;;;;;10128706;28;20451;-55
2021/08/23 16:32:33;;;;;;;2.00;1.42;;;23.80;75.80;;;;;;10133830;28;20099;-57
2021/08/23 16:37:24;;;;;;;3.88;3.15;;;25.80;70.50;;;;;;10139671;28;20115;-57
2021/08/23 16:42:14;;;;;;;5.15;3.63;;;26.60;69.40;;;;;;10129605;28;20426;-57
2021/08/23 16:47:05;;;;;;;2.95;2.03;;;29.20;64.90;;;;;;10135306;28;20362;-59
2021/08/23 16:51:57;;;;;;;1.75;1.50;;;30.50;61.90;;;;;;10136915;28;20399;-57
2021/08/23 16:56:48;;;;;;;1.20;1.10;;;31.30;60.20;;;;;;10133460;28;20036;-58
2021/08/23 17:01:38;;;;;;;2.53;1.67;;;31.10;59.70;;;;;;10135253;28;20020;-59
2021/08/23 17:06:29;;;;;;;2.03;1.83;;;31.30;59.90;;;;;;10136710;28;20580;-58
2021/08/23 17:11:20;;;;;;;3.35;2.88;;;31.70;59.00;;;;;;10130297;28;20040;-58
2021/08/23 17:16:10;;;;;;;2.92;2.00;;;31.30;59.10;;;;;;10137107;28;20506;-58
2021/08/23 17:21:01;;;;;;;2.58;1.80;;;30.70;60.00;;;;;;10130843;28;20544;-56
2021/08/23 17:25:52;;;;;;;2.20;1.42;;;29.70;61.20;;;;;;10136591;28;20482;-58
2021/08/23 17:30:43;;;;;;;1.38;1.25;;;26.50;66.70;;;;;;10135375;28;20044;-59
2021/08/23 17:35:34;;;;;;;1.70;1.40;;;24.80;69.70;;;;;;10137502;28;20040;-58
2021/08/23 17:40:24;;;;;;;3.20;1.88;;;23.90;70.90;;;;;;10129272;28;20036;-58
2021/08/23 17:45:16;;;;;;;2.58;1.48;;;23.60;71.10;;;;;;10130527;28;20036;-59
2021/08/23 17:50:08;;;;;;;1.48;1.30;;;23.10;71.40;;;;;;10129377;28;20077;-57
2021/08/23 17:54:58;;;;;;;2.42;1.13;;;22.90;71.60;;;;;;10132078;28;20486;-59
2021/08/23 17:59:49;;;;;;;2.45;1.20;;;22.80;71.70;;;;;;10133710;28;20070;-57
2021/08/23 18:04:41;;;;;;;1.40;1.10;;;22.60;72.20;;;;;;10134379;28;20050;-58
2021/08/23 18:09:32;;;;;;;1.50;1.30;;;22.40;72.60;;;;;;10137350;28;20029;-60
2021/08/23 18:14:22;;;;;;;1.23;1.13;;;22.30;73.10;;;;;;10129205;28;20039;-59
2021/08/23 18:19:13;;;;;;;2.80;1.60;;;22.20;73.50;;;;;;10129765;28;20029;-59
2021/08/23 18:24:04;;;;;;;2.50;1.98;;;22.10;74.00;;;;;;10129604;28;20161;-59
2021/08/23 18:28:55;;;;;;;3.15;1.55;;;22.00;74.30;;;;;;10133638;28;20019;-59
2021/08/23 18:33:45;;;;;;;2.25;1.67;;;21.90;74.70;;;;;;10132587;28;20083;-59
2021/08/23 18:38:36;;;;;;;2.35;1.88;;;21.80;75.10;;;;;;10131790;28;20498;-59
2021/08/23 18:43:30;;;;;;;3.80;1.90;;;21.70;75.40;;;;;;10133920;28;20033;-60
2021/08/23 18:48:20;;;;;;;3.63;2.45;;;21.60;75.80;;;;;;10134853;28;20391;-59
2021/08/23 18:53:11;;;;;;;3.97;2.42;;;21.60;76.20;;;;;;10140657;28;20025;-60
2021/08/23 18:58:02;;;;;;;2.25;1.80;;;21.60;76.70;;;;;;10135158;28;20363;-58
2021/08/23 19:02:52;;;;;;;2.78;1.58;;;21.60;77.30;;;;;;10134182;28;20480;-59
2021/08/23 19:07:43;;;;;;;3.20;2.40;;;21.70;77.60;;;;;;10129070;28;20028;-61
2021/08/23 19:12:34;;;;;;;4.32;2.40;;;21.70;77.90;;;;;;10120360;28;20514;-60
2021/08/23 19:17:25;;;;;;;3.70;1.77;;;21.50;78.50;;;;;;10128648;28;20567;-59
2021/08/23 19:22:15;;;;;;;1.92;1.48;;;21.20;79.90;;;;;;10127454;28;20079;-60
2021/08/23 19:27:06;;;;;;;3.38;1.92;;;21.10;80.80;;;;;;10129791;28;20363;-59
2021/08/23 19:31:57;;;;;;;3.50;1.77;;;21.10;81.10;;;;;;10125939;28;20056;-59
2021/08/23 19:36:49;;;;;;;2.17;1.55;;;21.00;81.40;;;;;;10123528;28;20048;-59
2021/08/23 19:41:39;;;;;;;2.72;2.28;;;20.90;82.10;;;;;;10123706;28;20043;-60
2021/08/23 19:46:30;;;;;;;4.45;2.65;;;20.80;83.30;;;;;;10126717;28;20368;-60
2021/08/23 19:51:20;;;;;;;4.60;2.20;;;20.70;83.70;;;;;;10130463;28;20341;-60
2021/08/23 19:56:12;;;;;;;3.33;1.88;;;20.70;84.20;;;;;;10132190;28;20020;-59
2021/08/23 20:01:03;;;;;;;2.63;2.00;;;20.60;84.50;;;;;;10130329;28;20512;-59
2021/08/23 20:05:54;;;;;;;3.08;1.90;;;20.60;84.80;;;;;;10130421;28;20050;-61
2021/08/23 20:10:45;;;;;;;2.47;2.08;;;20.70;84.70;;;;;;10130049;28;20062;-59
2021/08/23 20:15:36;;;;;;;2.75;2.15;;;20.80;84.70;;;;;;10129173;28;20383;-59
2021/08/23 20:20:27;;;;;;;4.53;2.03;;;20.60;85.10;;;;;;10128593;28;20032;-60
2021/08/23 20:25:18;;;;;;;2.33;1.77;;;20.60;85.40;;;;;;10130109;28;20033;-59
2021/08/23 20:30:11;;;;;;;2.03;1.65;;;20.70;85.50;;;;;;10128360;28;20452;-59
2021/08/23 20:35:11;;;;;;;3.10;2.05;;;20.60;85.80;;;;;;10127354;28;20441;-59
2021/08/23 20:40:02;;;;;;;4.13;2.00;;;20.60;86.30;;;;;;10134219;28;20025;-59
2021/08/23 20:44:53;;;;;;;4.13;2.50;;;20.40;86.80;;;;;;10130689;28;20032;-58
2021/08/23 20:49:45;;;;;;;3.70;2.50;;;20.30;87.40;;;;;;10134602;28;20021;-59
2021/08/23 20:54:35;;;;;;;2.90;2.25;;;20.20;88.00;;;;;;10147183;28;20040;-60
2021/08/23 20:59:26;;;;;;;4.63;2.55;;;20.00;88.70;;;;;;10132654;28;20036;-58
2021/08/23 21:04:19;;;;;;;6.82;3.80;;;20.00;88.70;;;;;;10130557;28;20481;-59
2021/08/23 21:09:09;;;;;;;4.82;2.90;;;20.00;88.90;;;;;;10135125;28;20029;-59
2021/08/23 21:14:00;;;;;;;4.38;3.60;;;19.90;89.10;;;;;;10151590;28;20424;-60
2021/08/23 21:18:51;;;;;;;6.25;3.60;;;19.80;89.40;;;;;;10156303;28;20075;-59
2021/08/23 21:23:42;;;;;;;3.95;2.95;;;19.60;89.90;;;;;;10152111;28;20311;-61
2021/08/23 21:28:32;;;;;;;6.13;4.15;;;19.60;90.00;;;;;;10158061;28;20312;-59
2021/08/23 21:33:23;;;;;;;6.18;4.05;;;19.60;90.20;;;;;;10137611;28;20113;-60
2021/08/23 21:38:13;;;;;;;5.38;3.42;;;19.60;90.20;;;;;;10144773;28;20095;-60
2021/08/23 21:43:04;;;;;;;6.45;4.18;;;19.50;90.40;;;;;;10140927;28;20044;-59
2021/08/23 21:47:55;;;;;;;5.75;3.35;;;19.40;90.70;;;;;;10148336;28;20052;-59
2021/08/23 21:52:46;;;;;;;5.63;3.67;;;19.40;90.70;;;;;;10135078;28;20031;-60
2021/08/23 21:57:36;;;;;;;6.15;3.75;;;19.40;90.80;;;;;;10147481;28;20089;-59
2021/08/23 22:02:27;;;;;;;6.30;3.88;;;19.40;90.90;;;;;;10155069;28;20054;-59
2021/08/23 22:07:18;;;;;;;5.32;3.70;;;19.30;90.90;;;;;;10135890;28;20013;-59
2021/08/23 22:12:10;;;;;;;7.93;4.18;;;19.30;91.10;;;;;;10133596;28;20028;-59
2021/08/23 22:17:01;;;;;;;6.78;3.17;;;19.20;91.30;;;;;;10144556;28;20029;-60
2021/08/23 22:21:51;;;;;;;4.50;3.03;;;19.10;91.40;;;;;;10131277;28;20028;-58
2021/08/23 22:26:42;;;;;;;4.03;2.85;;;19.00;91.60;;;;;;10127477;28;20029;-58
2021/08/23 22:31:33;;;;;;;5.78;3.15;;;19.00;91.50;;;;;;10130530;28;20055;-58
2021/08/23 22:36:23;;;;;;;5.00;3.08;;;19.10;91.50;;;;;;10130621;28;20174;-58
2021/08/23 22:41:14;;;;;;;6.22;3.30;;;19.10;91.50;;;;;;10126210;28;20036;-59
2021/08/23 22:46:05;;;;;;;4.90;3.05;;;19.00;91.50;;;;;;10131233;28;20682;-59
2021/08/23 22:50:55;;;;;;;3.63;2.58;;;19.10;91.50;;;;;;10132582;28;20070;-60
2021/08/23 22:55:46;;;;;;;5.78;3.08;;;19.10;91.30;;;;;;10131649;28;20064;-58
2021/08/23 23:00:37;;;;;;;4.85;2.85;;;19.20;91.50;;;;;;10129193;28;20066;-60
2021/08/23 23:05:28;;;;;;;4.07;2.75;;;19.20;91.10;;;;;;10126154;28;20574;-58
2021/08/23 23:10:23;;;;;;;5.43;2.70;;;19.30;91.20;;;;;;10132310;28;20443;-60
2021/08/23 23:15:13;;;;;;;4.07;3.17;;;19.30;91.10;;;;;;10128835;28;20056;-58
2021/08/23 23:20:07;;;;;;;3.45;2.25;;;19.20;91.20;;;;;;10133095;28;20064;-59
2021/08/23 23:24:57;;;;;;;7.10;2.35;;;19.20;91.30;;;;;;10125650;28;20033;-58
2021/08/23 23:29:48;;;;;;;6.03;2.78;;;19.20;91.30;;;;;;10132191;28;20032;-59
2021/08/23 23:34:39;;;;;;;3.88;2.47;;;19.20;91.30;;;;;;10129424;28;20040;-59
2021/08/23 23:39:29;;;;;;;3.83;2.67;;;19.20;91.30;;;;;;10130601;28;20472;-58
2021/08/23 23:44:20;;;;;;;7.28;2.45;;;19.30;91.10;;;;;;10126894;28;20556;-59
2021/08/23 23:49:10;;;;;;;3.30;2.40;;;19.20;91.10;;;;;;10131546;28;20115;-59
2021/08/23 23:54:01;;;;;;;4.63;2.28;;;19.20;91.00;;;;;;10124874;28;20020;-59
2021/08/23 23:58:53;;;;;;;6.82;2.78;;;19.20;91.00;;;;;;10124342;28;20031;-59
